Time;durP1;ratioP1;P1;durP2;ratioP2;P2;SDS_P1;SDS_P2;PMS_P1;PMS_P2;Temp;Humidity;BMP_temperature;BMP_pressure;BME280_temperature;BME280_humidity;BME280_pressure;Samples;Min_cycle;Max_cycle;Signal;HPM_P1;HPM_P2
2022/08/09 00:00:47;;;;;;;0.75;0.75;;;22.30;83.50;;;;;;5114820;27;20043;-64
2022/08/09 00:03:13;;;;;;;1.17;0.90;;;22.30;83.50;;;;;;5132891;27;20040;-64
2022/08/09 00:05:39;;;;;;;0.60;0.60;;;22.30;83.60;;;;;;5114646;27;20035;-64
2022/08/09 00:08:09;;;;;;;1.25;0.82;;;22.30;83.50;;;;;;5132974;27;20074;-64
2022/08/09 00:10:35;;;;;;;2.47;0.88;;;22.30;83.60;;;;;;5133667;27;20118;-64
2022/08/09 00:13:01;;;;;;;1.42;0.85;;;22.30;83.60;;;;;;5115080;27;20046;-64
2022/08/09 00:15:27;;;;;;;1.02;0.93;;;22.30;83.60;;;;;;5132703;27;20134;-64
2022/08/09 00:17:53;;;;;;;0.90;0.80;;;22.30;83.60;;;;;;5133291;27;20130;-61
2022/08/09 00:20:19;;;;;;;0.68;0.68;;;22.30;83.60;;;;;;5132755;27;20085;-64
2022/08/09 00:22:44;;;;;;;1.02;0.88;;;22.30;83.60;;;;;;5115093;27;20054;-64
2022/08/09 00:25:10;;;;;;;1.65;1.00;;;22.30;83.60;;;;;;5133061;27;20403;-65
2022/08/09 00:27:35;;;;;;;1.15;0.80;;;22.30;83.60;;;;;;5133678;27;20043;-65
2022/08/09 00:30:01;;;;;;;0.82;0.80;;;22.30;83.60;;;;;;5133013;27;20078;-65
2022/08/09 00:32:27;;;;;;;0.95;0.88;;;22.30;83.70;;;;;;5132137;27;20484;-65
2022/08/09 00:34:54;;;;;;;1.40;0.80;;;22.20;83.60;;;;;;5132189;27;20055;-62
2022/08/09 00:37:20;;;;;;;1.90;0.80;;;22.30;83.70;;;;;;5133261;27;20492;-64
2022/08/09 00:39:46;;;;;;;1.00;0.65;;;22.20;83.60;;;;;;5133459;27;20054;-65
2022/08/09 00:42:11;;;;;;;0.73;0.70;;;22.30;83.70;;;;;;5131492;27;20043;-65
2022/08/09 00:44:37;;;;;;;0.80;0.68;;;22.20;83.70;;;;;;5133241;27;20054;-65
2022/08/09 00:47:03;;;;;;;0.70;0.68;;;22.30;83.70;;;;;;5131548;27;20369;-65
2022/08/09 00:49:28;;;;;;;0.70;0.70;;;22.30;83.70;;;;;;5132141;27;20043;-64
2022/08/09 00:51:55;;;;;;;1.08;0.68;;;22.30;83.70;;;;;;5132958;27;20051;-65
2022/08/09 00:54:22;;;;;;;1.20;0.90;;;22.30;83.80;;;;;;5132869;27;20039;-65
2022/08/09 00:56:47;;;;;;;0.70;0.70;;;22.20;83.70;;;;;;5131970;27;20476;-65
2022/08/09 00:59:13;;;;;;;0.70;0.70;;;22.30;83.80;;;;;;5132296;27;20104;-65
2022/08/09 01:01:40;;;;;;;0.60;0.60;;;22.20;83.70;;;;;;5131945;27;20529;-65
2022/08/09 01:04:09;;;;;;;0.75;0.65;;;22.20;83.70;;;;;;5131630;27;20130;-64
2022/08/09 01:06:43;;;;;;;0.82;0.70;;;22.20;83.80;;;;;;5132624;27;20527;-64
2022/08/09 01:09:34;;;;;;;1.20;0.82;;;22.30;83.90;;;;;;5132485;27;20044;-65
2022/08/09 01:12:05;;;;;;;0.82;0.77;;;22.20;83.80;;;;;;5132204;27;20493;-61
2022/08/09 01:14:39;;;;;;;1.13;0.82;;;22.20;83.80;;;;;;5131946;27;20114;-64
2022/08/09 01:17:18;;;;;;;1.40;0.90;;;22.20;83.90;;;;;;5110077;28;20397;-65
2022/08/09 01:19:49;;;;;;;0.75;0.70;;;22.20;83.90;;;;;;5111235;28;20062;-64
2022/08/09 01:22:39;;;;;;;2.20;0.88;;;22.20;83.90;;;;;;5130172;27;20564;-65
2022/08/09 01:25:33;;;;;;;1.27;0.98;;;22.20;83.90;;;;;;5107707;28;20070;-64
2022/08/09 01:28:01;;;;;;;0.60;0.60;;;22.20;84.00;;;;;;5111996;28;20040;-64
2022/08/09 01:30:29;;;;;;;1.00;0.80;;;22.20;83.90;;;;;;5110750;28;20055;-64
2022/08/09 01:32:57;;;;;;;0.75;0.70;;;22.20;83.90;;;;;;5111514;28;20040;-64
2022/08/09 01:35:28;;;;;;;1.05;0.82;;;22.20;84.00;;;;;;5093178;27;20090;-65
2022/08/09 01:37:57;;;;;;;0.70;0.70;;;22.20;84.00;;;;;;5118362;27;20134;-65
2022/08/09 01:40:25;;;;;;;1.23;0.90;;;22.20;84.00;;;;;;5131633;27;20734;-65
2022/08/09 01:42:53;;;;;;;0.75;0.75;;;22.20;84.00;;;;;;5132153;27;20598;-65
2022/08/09 01:45:21;;;;;;;0.63;0.63;;;22.20;84.00;;;;;;5095489;27;20127;-64
2022/08/09 01:47:47;;;;;;;0.88;0.73;;;22.20;84.00;;;;;;5132002;27;20047;-65
2022/08/09 01:50:14;;;;;;;0.80;0.80;;;22.20;84.10;;;;;;5130588;27;20047;-64
2022/08/09 01:52:42;;;;;;;7.95;0.98;;;22.20;84.10;;;;;;5132179;27;20051;-64
2022/08/09 01:55:09;;;;;;;0.65;0.65;;;22.20;84.10;;;;;;5131592;27;20130;-65
2022/08/09 01:57:44;;;;;;;0.95;0.70;;;22.20;84.10;;;;;;5131459;27;20176;-64
2022/08/09 02:00:13;;;;;;;0.70;0.70;;;22.20;84.10;;;;;;5130111;27;20039;-65
2022/08/09 02:02:48;;;;;;;0.77;0.68;;;22.20;84.20;;;;;;5131761;27;20046;-64
2022/08/09 02:05:18;;;;;;;0.85;0.80;;;22.10;84.10;;;;;;5130550;27;20396;-64
2022/08/09 02:07:47;;;;;;;1.20;0.80;;;22.20;84.20;;;;;;5112818;27;20396;-65
2022/08/09 02:10:29;;;;;;;1.33;0.80;;;22.20;84.20;;;;;;5110609;28;20062;-64
2022/08/09 02:12:56;;;;;;;0.80;0.80;;;22.20;84.20;;;;;;5111397;28;20043;-65
2022/08/09 02:15:23;;;;;;;0.70;0.70;;;22.20;84.30;;;;;;5109661;28;20048;-65
2022/08/09 02:17:51;;;;;;;0.57;0.55;;;22.20;84.30;;;;;;5111047;28;20047;-64
2022/08/09 02:20:17;;;;;;;1.20;0.68;;;22.10;84.30;;;;;;5125940;28;20130;-65
2022/08/09 02:22:51;;;;;;;0.60;0.60;;;22.20;84.30;;;;;;5131807;28;20122;-65
2022/08/09 02:25:21;;;;;;;0.93;0.60;;;22.20;84.30;;;;;;5130791;28;20135;-64
2022/08/09 02:27:53;;;;;;;1.00;0.90;;;22.20;84.30;;;;;;5131800;28;20031;-64
2022/08/09 02:30:19;;;;;;;0.80;0.80;;;22.20;84.30;;;;;;5126777;28;20043;-64
2022/08/09 02:32:47;;;;;;;0.73;0.73;;;22.20;84.30;;;;;;5110749;28;20093;-64
2022/08/09 02:35:24;;;;;;;1.00;0.70;;;22.10;84.30;;;;;;5109437;28;20059;-65
2022/08/09 02:37:56;;;;;;;0.82;0.70;;;22.10;84.30;;;;;;5111017;28;20035;-64
2022/08/09 02:40:24;;;;;;;1.25;0.80;;;22.10;84.30;;;;;;5111506;28;20512;-64
2022/08/09 02:42:52;;;;;;;0.80;0.80;;;22.10;84.30;;;;;;5124562;28;20055;-65
2022/08/09 02:45:25;;;;;;;0.75;0.75;;;22.20;84.30;;;;;;5127027;28;20590;-65
2022/08/09 02:47:53;;;;;;;0.98;0.80;;;22.20;84.40;;;;;;5110983;28;20046;-65
2022/08/09 02:50:23;;;;;;;2.20;0.80;;;22.10;84.30;;;;;;5109476;28;20051;-64
2022/08/09 02:52:58;;;;;;;1.10;0.80;;;22.10;84.30;;;;;;5110973;28;20086;-64
2022/08/09 02:55:26;;;;;;;0.82;0.70;;;22.10;84.30;;;;;;5117154;28;20533;-65
2022/08/09 02:57:53;;;;;;;0.60;0.60;;;22.10;84.40;;;;;;5131184;28;20047;-65
2022/08/09 03:00:20;;;;;;;0.70;0.70;;;22.10;84.40;;;;;;5129830;28;20047;-64
2022/08/09 03:02:50;;;;;;;1.15;0.75;;;22.10;84.40;;;;;;5111339;28;20723;-64
2022/08/09 03:05:17;;;;;;;1.27;0.70;;;22.10;84.40;;;;;;5109416;28;20048;-64
2022/08/09 03:07:44;;;;;;;0.68;0.68;;;22.10;84.40;;;;;;5110907;28;20047;-65
2022/08/09 03:10:11;;;;;;;1.05;0.70;;;22.10;84.50;;;;;;5119586;28;20093;-61
2022/08/09 03:12:38;;;;;;;0.95;0.60;;;22.10;84.50;;;;;;5131155;28;20133;-65
2022/08/09 03:15:05;;;;;;;0.95;0.90;;;22.10;84.50;;;;;;5130956;28;20043;-63
2022/08/09 03:17:32;;;;;;;1.58;0.82;;;22.10;84.50;;;;;;5129749;27;20036;-65
2022/08/09 03:20:00;;;;;;;0.98;0.80;;;22.10;84.50;;;;;;5133432;27;20488;-65
2022/08/09 03:22:29;;;;;;;0.80;0.80;;;22.10;84.50;;;;;;5129472;27;20052;-64
2022/08/09 03:24:55;;;;;;;1.30;0.80;;;22.10;84.60;;;;;;5121394;27;20043;-64
2022/08/09 03:27:23;;;;;;;0.57;0.57;;;22.10;84.60;;;;;;5134078;27;20122;-64
2022/08/09 03:29:53;;;;;;;0.75;0.75;;;22.10;84.60;;;;;;5134720;27;20047;-65
2022/08/09 03:32:20;;;;;;;1.80;0.80;;;22.10;85.20;;;;;;5133257;27;20051;-65
2022/08/09 03:34:46;;;;;;;1.23;1.08;;;22.10;84.60;;;;;;5133700;27;20054;-65
2022/08/09 03:37:12;;;;;;;0.68;0.68;;;22.10;84.60;;;;;;5134638;27;20039;-65
2022/08/09 03:39:38;;;;;;;1.00;0.88;;;22.10;84.70;;;;;;5134277;27;20050;-65
2022/08/09 03:42:04;;;;;;;0.60;0.60;;;22.10;84.70;;;;;;5134452;27;20084;-64
2022/08/09 03:44:30;;;;;;;1.60;1.00;;;22.10;84.70;;;;;;5133875;27;20054;-65
2022/08/09 03:46:55;;;;;;;0.60;0.60;;;22.10;84.70;;;;;;5132691;27;20039;-65
2022/08/09 03:49:24;;;;;;;0.95;0.82;;;22.10;84.70;;;;;;5108705;27;20046;-65
2022/08/09 03:51:56;;;;;;;0.60;0.60;;;22.10;84.70;;;;;;5134470;27;20043;-65
2022/08/09 03:54:25;;;;;;;0.80;0.70;;;22.10;84.70;;;;;;5134016;27;20139;-64
2022/08/09 03:56:51;;;;;;;0.70;0.70;;;22.10;84.70;;;;;;5133738;27;20047;-64
2022/08/09 03:59:17;;;;;;;1.27;0.75;;;22.10;84.70;;;;;;5133619;27;20035;-61
2022/08/09 04:01:43;;;;;;;1.00;0.90;;;22.10;84.80;;;;;;5133110;27;20388;-64
2022/08/09 04:04:11;;;;;;;0.70;0.60;;;22.10;84.80;;;;;;5120834;27;20044;-65
2022/08/09 04:06:37;;;;;;;0.80;0.80;;;22.10;84.80;;;;;;5113068;28;20079;-64
2022/08/09 04:09:05;;;;;;;1.55;0.70;;;22.10;84.80;;;;;;5113574;28;20047;-65
2022/08/09 04:11:49;;;;;;;0.80;0.80;;;22.10;84.80;;;;;;5114218;27;20051;-65
2022/08/09 04:14:17;;;;;;;0.82;0.82;;;22.10;84.80;;;;;;5113391;28;20044;-64
2022/08/09 04:16:42;;;;;;;0.55;0.55;;;22.10;84.80;;;;;;5130892;27;20054;-65
2022/08/09 04:19:08;;;;;;;0.75;0.60;;;22.00;84.70;;;;;;5111118;28;20039;-64
2022/08/09 04:21:33;;;;;;;0.60;0.60;;;22.10;84.80;;;;;;5112492;28;20083;-65
2022/08/09 04:23:59;;;;;;;0.60;0.60;;;22.10;84.80;;;;;;5113324;28;20059;-65
2022/08/09 04:26:25;;;;;;;0.95;0.70;;;22.10;84.80;;;;;;5123432;27;20061;-65
2022/08/09 04:28:51;;;;;;;0.60;0.60;;;22.10;84.80;;;;;;5133588;27;20479;-65
2022/08/09 04:31:17;;;;;;;0.73;0.73;;;22.10;84.80;;;;;;5131509;27;20050;-64
2022/08/09 04:33:42;;;;;;;0.60;0.60;;;22.10;84.90;;;;;;5132271;27;20807;-65
2022/08/09 04:36:08;;;;;;;0.95;0.80;;;22.10;84.90;;;;;;5133528;27;20111;-65
2022/08/09 04:38:34;;;;;;;0.70;0.70;;;22.00;84.80;;;;;;5132837;27;20092;-64
2022/08/09 04:40:59;;;;;;;0.88;0.63;;;22.10;85.00;;;;;;5132112;27;20381;-64
2022/08/09 04:43:25;;;;;;;0.60;0.60;;;22.00;84.90;;;;;;5132835;27;20047;-65
2022/08/09 04:45:51;;;;;;;0.60;0.60;;;22.10;85.00;;;;;;5113914;27;20043;-63
2022/08/09 04:48:16;;;;;;;0.88;0.73;;;22.00;85.00;;;;;;5123807;27;20043;-65
2022/08/09 04:50:43;;;;;;;0.80;0.80;;;22.00;85.00;;;;;;5110993;28;20040;-65
2022/08/09 04:53:10;;;;;;;0.70;0.70;;;22.00;85.00;;;;;;5127557;27;20047;-64
2022/08/09 04:55:39;;;;;;;0.77;0.77;;;22.10;85.00;;;;;;5132526;27;20051;-64
2022/08/09 04:58:06;;;;;;;0.80;0.80;;;22.10;85.10;;;;;;5112434;28;20039;-64
2022/08/09 05:00:34;;;;;;;1.35;0.63;;;22.10;85.10;;;;;;5110844;28;20151;-65
2022/08/09 05:03:04;;;;;;;1.05;0.88;;;22.10;85.10;;;;;;5107628;27;20110;-65
2022/08/09 05:05:31;;;;;;;0.73;0.70;;;22.00;85.10;;;;;;5099015;27;20083;-64
2022/08/09 05:07:57;;;;;;;1.95;0.70;;;22.10;85.10;;;;;;5132762;27;20058;-65
2022/08/09 05:10:23;;;;;;;1.65;0.70;;;22.00;85.10;;;;;;5132146;27;20031;-62
2022/08/09 05:12:50;;;;;;;1.23;0.65;;;22.10;85.10;;;;;;5132343;27;20043;-64
2022/08/09 05:15:16;;;;;;;0.70;0.70;;;22.10;85.20;;;;;;5129310;27;20054;-63
2022/08/09 05:17:41;;;;;;;0.50;0.50;;;22.10;85.10;;;;;;5119960;27;20043;-65
2022/08/09 05:20:08;;;;;;;0.60;0.60;;;22.10;85.20;;;;;;5113132;27;20050;-65
2022/08/09 05:22:34;;;;;;;1.83;0.60;;;22.10;85.20;;;;;;5131702;27;20176;-66
2022/08/09 05:25:01;;;;;;;0.75;0.60;;;22.10;85.20;;;;;;5131891;27;20127;-65
2022/08/09 05:27:27;;;;;;;0.55;0.55;;;22.10;85.20;;;;;;5122504;27;20047;-65
2022/08/09 05:29:52;;;;;;;0.40;0.40;;;22.10;85.20;;;;;;5111722;28;20512;-65
2022/08/09 05:32:18;;;;;;;0.60;0.60;;;22.00;85.20;;;;;;5092939;28;20471;-66
2022/08/09 05:34:44;;;;;;;0.80;0.80;;;22.10;85.20;;;;;;5110369;28;20101;-65
2022/08/09 05:37:10;;;;;;;0.90;0.90;;;22.10;85.20;;;;;;5111686;28;20574;-66
2022/08/09 05:39:37;;;;;;;1.10;0.82;;;22.10;85.20;;;;;;5119340;27;20134;-66
2022/08/09 05:42:03;;;;;;;0.73;0.73;;;22.10;85.20;;;;;;5127268;27;20051;-65
2022/08/09 05:44:29;;;;;;;0.57;0.57;;;22.10;85.20;;;;;;5130251;27;20046;-65
2022/08/09 05:46:55;;;;;;;0.60;0.60;;;22.10;85.20;;;;;;5130354;27;20035;-66
2022/08/09 05:49:20;;;;;;;0.50;0.50;;;22.10;85.20;;;;;;5131249;27;20475;-66
2022/08/09 05:51:46;;;;;;;0.50;0.50;;;22.10;85.20;;;;;;5131596;27;20460;-65
2022/08/09 05:54:12;;;;;;;2.42;0.60;;;22.10;85.20;;;;;;5132172;27;20539;-65
2022/08/09 05:56:37;;;;;;;0.55;0.55;;;22.10;85.20;;;;;;5112778;27;20499;-66
2022/08/09 05:59:03;;;;;;;0.50;0.50;;;22.10;85.20;;;;;;5131943;27;20043;-65
2022/08/09 06:01:29;;;;;;;0.40;0.40;;;22.10;85.20;;;;;;5129870;27;20108;-62
2022/08/09 06:03:57;;;;;;;1.35;0.50;;;22.20;85.30;;;;;;5127711;27;20049;-65
2022/08/09 06:06:23;;;;;;;0.60;0.60;;;22.10;85.20;;;;;;5131497;27;20094;-66
2022/08/09 06:08:49;;;;;;;0.70;0.70;;;22.20;85.30;;;;;;5130987;27;20495;-66
2022/08/09 06:11:15;;;;;;;0.98;0.50;;;22.20;85.30;;;;;;5131640;27;20051;-65
2022/08/09 06:13:41;;;;;;;0.95;0.70;;;22.20;85.30;;;;;;5131203;27;20097;-66
2022/08/09 06:16:07;;;;;;;0.70;0.70;;;22.20;85.30;;;;;;5121979;27;20055;-65
2022/08/09 06:18:34;;;;;;;2.05;0.68;;;22.20;85.30;;;;;;5124246;27;20473;-66
2022/08/09 06:21:00;;;;;;;0.70;0.70;;;22.10;85.30;;;;;;5115589;28;20047;-65
2022/08/09 06:23:30;;;;;;;0.68;0.68;;;22.20;85.30;;;;;;5093067;28;20075;-66
2022/08/09 06:25:57;;;;;;;0.80;0.80;;;22.20;85.30;;;;;;5111030;28;20051;-65
2022/08/09 06:28:23;;;;;;;0.60;0.60;;;22.20;85.30;;;;;;5124027;28;20058;-64
2022/08/09 06:30:49;;;;;;;0.40;0.40;;;22.20;85.30;;;;;;5126548;28;20051;-65
2022/08/09 06:33:14;;;;;;;0.68;0.68;;;22.20;85.30;;;;;;5128475;28;20400;-65
2022/08/09 06:35:40;;;;;;;0.70;0.70;;;22.20;85.30;;;;;;5129636;28;20062;-66
2022/08/09 06:38:06;;;;;;;0.60;0.60;;;22.20;85.30;;;;;;5131403;28;20051;-66
2022/08/09 06:40:32;;;;;;;0.85;0.60;;;22.20;85.30;;;;;;5131050;28;20434;-62
2022/08/09 06:42:59;;;;;;;0.50;0.50;;;22.20;85.30;;;;;;5106158;28;20044;-66
2022/08/09 06:45:26;;;;;;;0.63;0.63;;;22.20;85.30;;;;;;5109485;28;20806;-66
2022/08/09 06:47:52;;;;;;;1.02;0.65;;;22.20;85.30;;;;;;5123310;28;20582;-66
2022/08/09 06:50:17;;;;;;;0.60;0.60;;;22.30;85.40;;;;;;5130521;28;20047;-65
2022/08/09 06:52:46;;;;;;;1.13;0.60;;;22.30;85.40;;;;;;5131057;27;20450;-66
2022/08/09 06:55:16;;;;;;;0.50;0.50;;;22.20;85.30;;;;;;5134504;27;20039;-65
2022/08/09 06:57:42;;;;;;;0.70;0.65;;;22.30;85.40;;;;;;5111211;27;20035;-66
2022/08/09 07:00:09;;;;;;;0.55;0.55;;;22.30;85.40;;;;;;5122700;27;20043;-65
2022/08/09 07:02:35;;;;;;;0.50;0.50;;;22.30;85.40;;;;;;5100276;28;20055;-63
2022/08/09 07:05:01;;;;;;;0.63;0.63;;;22.30;85.30;;;;;;5113878;28;20039;-65
2022/08/09 07:07:27;;;;;;;0.73;0.55;;;22.30;85.30;;;;;;5121904;27;20043;-66
2022/08/09 07:09:53;;;;;;;0.93;0.88;;;22.30;85.30;;;;;;5134624;27;20046;-66
2022/08/09 07:12:18;;;;;;;1.23;0.60;;;22.30;85.30;;;;;;5134933;27;20057;-66
2022/08/09 07:14:47;;;;;;;0.60;0.60;;;22.30;85.30;;;;;;5134322;27;20408;-65
2022/08/09 07:17:13;;;;;;;0.85;0.75;;;22.30;85.30;;;;;;5115580;27;20479;-65
2022/08/09 07:19:39;;;;;;;0.60;0.60;;;22.30;85.30;;;;;;5132605;27;20043;-66
2022/08/09 07:22:06;;;;;;;0.60;0.60;;;22.30;85.30;;;;;;5112251;27;20480;-65
2022/08/09 07:24:32;;;;;;;2.25;1.17;;;22.30;85.30;;;;;;5133553;27;20489;-65
2022/08/09 07:26:59;;;;;;;0.63;0.55;;;22.30;85.30;;;;;;5141343;27;20038;-65
2022/08/09 07:29:26;;;;;;;0.68;0.68;;;22.30;85.30;;;;;;5151872;27;20056;-65
2022/08/09 07:31:52;;;;;;;0.63;0.63;;;22.30;85.30;;;;;;5151317;27;20103;-66
2022/08/09 07:34:18;;;;;;;1.40;0.95;;;22.30;85.30;;;;;;5150474;27;20054;-66
2022/08/09 07:36:43;;;;;;;0.50;0.50;;;22.30;85.30;;;;;;5149070;27;20065;-66
2022/08/09 07:39:09;;;;;;;0.68;0.68;;;22.30;85.30;;;;;;5140426;27;20666;-64
2022/08/09 07:41:35;;;;;;;0.98;0.82;;;22.30;85.30;;;;;;5150880;27;20053;-65
2022/08/09 07:44:00;;;;;;;0.68;0.68;;;22.30;85.30;;;;;;5152721;27;20039;-64
2022/08/09 07:46:26;;;;;;;0.55;0.55;;;22.30;85.20;;;;;;5141045;27;20054;-64
2022/08/09 07:48:52;;;;;;;1.75;1.10;;;22.40;85.30;;;;;;5129348;27;20039;-62
2022/08/09 07:51:18;;;;;;;0.95;0.80;;;22.30;85.20;;;;;;5132778;27;20051;-62
2022/08/09 07:53:44;;;;;;;1.33;1.05;;;22.40;85.20;;;;;;5132753;27;20058;-62
2022/08/09 07:56:10;;;;;;;1.38;0.95;;;22.30;85.20;;;;;;5133810;27;20084;-62
2022/08/09 07:58:35;;;;;;;1.17;0.80;;;22.30;85.20;;;;;;5133895;27;20047;-63
2022/08/09 08:01:02;;;;;;;2.10;1.23;;;22.30;85.10;;;;;;5130523;27;20085;-62
2022/08/09 08:03:27;;;;;;;1.73;1.20;;;22.30;85.10;;;;;;5132613;27;20401;-62
2022/08/09 08:05:53;;;;;;;2.35;1.10;;;22.30;85.10;;;;;;5132803;27;20050;-62
2022/08/09 08:08:19;;;;;;;2.42;1.00;;;22.40;85.20;;;;;;5115549;27;20440;-63
2022/08/09 08:10:45;;;;;;;4.78;1.30;;;22.40;85.20;;;;;;5133434;27;20049;-62
2022/08/09 08:13:10;;;;;;;3.45;0.95;;;22.40;85.20;;;;;;5133020;27;20074;-63
2022/08/09 08:15:36;;;;;;;2.00;1.10;;;22.40;85.20;;;;;;5132492;27;20480;-62
2022/08/09 08:18:02;;;;;;;5.10;1.63;;;22.40;85.20;;;;;;5114519;27;20693;-62
2022/08/09 08:20:29;;;;;;;2.78;1.38;;;22.40;85.10;;;;;;5132727;27;20188;-62
2022/08/09 08:22:55;;;;;;;3.17;1.40;;;22.40;85.20;;;;;;5133117;27;20065;-65
2022/08/09 08:25:20;;;;;;;3.20;1.65;;;22.40;85.20;;;;;;5132999;27;20114;-65
2022/08/09 08:27:46;;;;;;;5.47;1.63;;;22.40;85.20;;;;;;5132943;27;20510;-64
2022/08/09 08:30:12;;;;;;;5.22;1.40;;;22.40;85.10;;;;;;5128159;27;20047;-65
2022/08/09 08:32:39;;;;;;;3.92;1.50;;;22.40;85.20;;;;;;5130585;27;20105;-65
2022/08/09 08:35:06;;;;;;;5.97;1.80;;;22.40;85.10;;;;;;5131621;27;20039;-63
2022/08/09 08:37:32;;;;;;;2.30;1.30;;;22.50;85.20;;;;;;5124274;27;20113;-63
2022/08/09 08:39:58;;;;;;;2.53;1.30;;;22.50;85.00;;;;;;5131338;27;20055;-63
2022/08/09 08:42:24;;;;;;;4.20;1.40;;;22.40;85.50;;;;;;5133113;27;20043;-62
2022/08/09 08:44:56;;;;;;;2.20;1.38;;;22.40;84.90;;;;;;5132542;27;20661;-62
2022/08/09 08:47:27;;;;;;;3.30;1.58;;;22.50;85.00;;;;;;5132085;27;20035;-63
2022/08/09 08:49:55;;;;;;;8.05;1.58;;;22.50;85.00;;;;;;5121940;27;20097;-62
2022/08/09 08:52:26;;;;;;;1.67;1.38;;;22.40;84.90;;;;;;5122255;27;20058;-62
2022/08/09 08:55:01;;;;;;;831.63;80.93;;;22.50;85.00;;;;;;5118005;27;20048;-63
2022/08/09 08:57:27;;;;;;;23.42;4.70;;;22.50;85.00;;;;;;5120591;27;20039;-63
2022/08/09 08:59:54;;;;;;;4.72;1.50;;;22.50;85.00;;;;;;5112846;27;20514;-62
2022/08/09 09:02:25;;;;;;;2.05;1.10;;;22.50;85.00;;;;;;5135359;27;20151;-63
2022/08/09 09:04:54;;;;;;;1.67;1.13;;;22.50;85.00;;;;;;5129256;27;20047;-63
2022/08/09 09:07:20;;;;;;;1.80;1.20;;;22.50;85.00;;;;;;5108382;27;20131;-62
2022/08/09 09:09:48;;;;;;;1.25;1.15;;;22.50;85.00;;;;;;5132669;27;20043;-65
2022/08/09 09:12:19;;;;;;;2.47;1.00;;;22.50;85.00;;;;;;5105704;27;20071;-64
2022/08/09 09:14:46;;;;;;;1.52;1.00;;;22.50;84.90;;;;;;5125501;27;20069;-65
2022/08/09 09:17:13;;;;;;;1.77;1.27;;;22.50;84.90;;;;;;5139595;27;20764;-65
2022/08/09 09:19:38;;;;;;;1.65;1.20;;;22.50;85.00;;;;;;5145753;27;20047;-65
2022/08/09 09:22:07;;;;;;;4.15;1.25;;;22.50;84.90;;;;;;5135759;27;20083;-61
2022/08/09 09:24:39;;;;;;;1.45;1.17;;;22.50;84.90;;;;;;5108648;28;20043;-65
2022/08/09 09:27:07;;;;;;;3.58;1.05;;;22.50;84.70;;;;;;5125792;27;20438;-65
2022/08/09 09:29:41;;;;;;;0.90;0.80;;;22.50;84.70;;;;;;5131725;27;20448;-65
2022/08/09 09:32:08;;;;;;;5.25;1.23;;;22.50;84.60;;;;;;5109299;27;20104;-65
2022/08/09 09:34:34;;;;;;;1.25;0.90;;;22.50;84.60;;;;;;5125216;27;20071;-65
2022/08/09 09:37:01;;;;;;;2.25;0.70;;;22.50;84.50;;;;;;5131444;27;20043;-65
2022/08/09 09:39:29;;;;;;;0.80;0.80;;;22.50;84.50;;;;;;5131903;27;20548;-65
2022/08/09 09:41:55;;;;;;;2.67;1.02;;;22.50;84.50;;;;;;5131010;27;20480;-65
2022/08/09 09:44:31;;;;;;;1.92;1.50;;;22.50;84.50;;;;;;5131472;27;20381;-64
2022/08/09 09:47:08;;;;;;;3.70;0.90;;;22.50;84.50;;;;;;5133888;27;20043;-64
2022/08/09 09:49:34;;;;;;;0.80;0.80;;;22.50;84.50;;;;;;5125287;27;20048;-68
2022/08/09 09:52:05;;;;;;;1.17;0.68;;;22.50;84.40;;;;;;5142668;27;20043;-63
2022/08/09 09:54:39;;;;;;;0.60;0.60;;;22.50;84.30;;;;;;5121015;27;20503;-65
2022/08/09 09:57:20;;;;;;;2.22;1.00;;;22.50;84.30;;;;;;5138703;27;20054;-65
2022/08/09 09:59:48;;;;;;;0.70;0.70;;;22.50;84.30;;;;;;5118480;27;20485;-65
2022/08/09 10:02:14;;;;;;;0.73;0.70;;;22.50;84.30;;;;;;5148233;27;20077;-65
2022/08/09 10:04:41;;;;;;;1.15;0.75;;;22.50;84.30;;;;;;5136430;27;20043;-65
2022/08/09 10:07:25;;;;;;;1.27;0.93;;;22.50;84.30;;;;;;5131276;27;20050;-63
2022/08/09 10:09:56;;;;;;;0.85;0.82;;;22.50;84.30;;;;;;5145154;27;20066;-63
2022/08/09 10:12:31;;;;;;;2.53;0.85;;;22.50;84.20;;;;;;5136913;27;20051;-63
2022/08/09 10:15:14;;;;;;;0.93;0.70;;;22.50;84.20;;;;;;5138048;27;20051;-62
2022/08/09 10:17:43;;;;;;;1.48;0.85;;;22.50;84.20;;;;;;5152357;27;20051;-63
2022/08/09 10:20:20;;;;;;;2.53;0.82;;;22.50;84.20;;;;;;5126259;27;20043;-63
2022/08/09 10:22:47;;;;;;;0.75;0.60;;;22.50;84.10;;;;;;5111345;28;20048;-63
2022/08/09 10:25:14;;;;;;;2.58;0.95;;;;;;;;;;5110426;28;20121;-66
2022/08/09 10:27:41;;;;;;;0.80;0.80;;;;;;;;;;5095698;27;20043;-65
2022/08/09 10:30:08;;;;;;;1.00;0.73;;;;;;;;;;5128514;27;20119;-65
2022/08/09 10:32:34;;;;;;;1.95;0.75;;;;;;;;;;5146952;27;20129;-68
2022/08/09 10:35:00;;;;;;;0.77;0.70;;;;;;;;;;5136960;27;20503;-65
2022/08/09 10:37:27;;;;;;;2.22;1.27;;;;;;;;;;5156157;27;20557;-66
2022/08/09 10:39:53;;;;;;;2.30;1.00;;;;;;;;;;5138349;27;20130;-65
2022/08/09 10:42:19;;;;;;;1.55;1.08;;;;;;;;;;5137079;27;20121;-65
2022/08/09 10:44:48;;;;;;;0.63;0.50;;;;;;;;;;5142021;27;20145;-65
2022/08/09 10:47:33;;;;;;;0.93;0.52;;;;;;;;;;5135477;27;20047;-65
2022/08/09 10:50:05;;;;;;;0.82;0.70;;;;;;;;;;5138188;27;20047;-65
2022/08/09 10:52:34;;;;;;;2.25;0.70;;;;;;;;;;5127487;27;20040;-66
2022/08/09 10:55:19;;;;;;;1.60;0.70;;;;;;;;;;5126310;27;20126;-63
2022/08/09 10:57:45;;;;;;;0.70;0.70;;;;;;;;;;5123380;27;20042;-66
2022/08/09 11:00:34;;;;;;;1.58;0.80;;;;;;;;;;5118534;27;20051;-65
2022/08/09 11:03:01;;;;;;;1.35;0.73;;;;;;;;;;5110926;27;20104;-66
2022/08/09 11:05:27;;;;;;;1.05;0.70;;;;;;;;;;5118826;27;20087;-65
2022/08/09 11:07:53;;;;;;;1.30;0.70;;;;;;;;;;5125245;27;20110;-66
2022/08/09 11:10:38;;;;;;;3.15;1.10;;;;;;;;;;5124432;27;20048;-66
2022/08/09 11:13:17;;;;;;;1.10;0.75;;;;;;;;;;5123386;27;20126;-62
2022/08/09 11:15:43;;;;;;;0.60;0.60;;;;;;;;;;5123957;27;20058;-66
2022/08/09 11:18:14;;;;;;;1.08;0.80;;;;;;;;;;5123283;27;20051;-65
2022/08/09 11:20:43;;;;;;;0.88;0.60;;;;;;;;;;5122293;27;20055;-65
2022/08/09 11:23:09;;;;;;;0.50;0.50;;;;;;;;;;5124265;27;20528;-66
2022/08/09 11:25:36;;;;;;;0.80;0.60;;;;;;;;;;5124675;27;20096;-65
2022/08/09 11:28:22;;;;;;;1.13;0.60;;;;;;;;;;5123048;27;20039;-66
2022/08/09 11:30:48;;;;;;;0.50;0.50;;;;;;;;;;5125105;27;20043;-66
2022/08/09 11:33:17;;;;;;;1.67;0.90;;;;;;;;;;5130653;27;20482;-65
2022/08/09 11:35:57;;;;;;;0.70;0.63;;;;;;;;;;5137753;27;20075;-66
2022/08/09 11:38:25;;;;;;;0.43;0.43;;;;;;;;;;5133642;27;20123;-66
2022/08/09 11:40:52;;;;;;;0.52;0.52;;;;;;;;;;5149535;27;20043;-64
2022/08/09 11:43:24;;;;;;;0.55;0.50;;;;;;;;;;5148745;27;20134;-65
2022/08/09 11:45:58;;;;;;;0.50;0.50;;;;;;;;;;5148133;27;20087;-66
2022/08/09 11:48:29;;;;;;;0.50;0.50;;;;;;;;;;5142912;27;20047;-67
2022/08/09 11:50:58;;;;;;;0.50;0.50;;;;;;;;;;5125720;27;20389;-65
2022/08/09 11:53:26;;;;;;;0.65;0.65;;;;;;;;;;5147562;27;20039;-64
2022/08/09 11:55:56;;;;;;;0.50;0.50;;;;;;;;;;5147355;27;20530;-64
2022/08/09 11:58:22;;;;;;;0.60;0.60;;;;;;;;;;5142432;27;20071;-65
2022/08/09 12:00:49;;;;;;;2.60;1.20;;;;;;;;;;5132550;27;20515;-63
2022/08/09 12:03:16;;;;;;;0.60;0.60;;;;;;;;;;5127703;27;20063;-63
2022/08/09 12:05:42;;;;;;;1.15;0.85;;;;;;;;;;5131503;27;20085;-63
2022/08/09 12:08:09;;;;;;;0.60;0.60;;;;;;;;;;5115669;27;20407;-63
2022/08/09 12:10:36;;;;;;;0.55;0.50;;;;;;;;;;5133278;27;20039;-63
2022/08/09 12:13:02;;;;;;;0.52;0.52;;;;;;;;;;5133697;27;20043;-63
2022/08/09 12:15:28;;;;;;;0.82;0.70;;;;;;;;;;5113688;27;20054;-63
2022/08/09 12:17:54;;;;;;;0.88;0.80;;;;;;;;;;5133501;27;20066;-63
2022/08/09 12:20:23;;;;;;;0.52;0.52;;;;;;;;;;5132126;27;20058;-63
2022/08/09 12:22:52;;;;;;;1.42;0.60;;;;;;;;;;5115649;27;20045;-63
2022/08/09 12:25:18;;;;;;;1.05;0.80;;;;;;;;;;5132568;27;20047;-63
2022/08/09 12:27:45;;;;;;;1.02;0.60;;;;;;;;;;5132160;27;20035;-63
2022/08/09 12:30:12;;;;;;;0.70;0.70;;;;;;;;;;5123413;27;20100;-62
2022/08/09 12:32:38;;;;;;;1.45;0.73;;;;;;;;;;5129711;27;20062;-63
2022/08/09 12:35:05;;;;;;;1.73;0.63;;;;;;;;;;5132460;27;20040;-63
2022/08/09 12:37:36;;;;;;;0.60;0.60;;;;;;;;;;5132284;27;20147;-63
2022/08/09 12:40:09;;;;;;;0.63;0.63;;;;;;;;;;5115110;27;20480;-63
2022/08/09 12:42:36;;;;;;;3.17;0.93;;;;;;;;;;5132695;27;20050;-63
2022/08/09 12:45:04;;;;;;;0.50;0.50;;;;;;;;;;5114725;27;20046;-63
2022/08/09 12:47:30;;;;;;;0.60;0.60;;;;;;;;;;5131617;27;20035;-63
2022/08/09 12:52:42;;;;;;;0.77;0.60;;;;;;;;;;5130947;27;20450;-63
2022/08/09 12:55:11;;;;;;;0.63;0.60;;;;;;;;;;5132852;27;20046;-63
2022/08/09 12:57:38;;;;;;;1.77;0.73;;;;;;;;;;5132215;27;20095;-63
2022/08/09 13:00:18;;;;;;;0.60;0.60;;;;;;;;;;5132647;27;20047;-63
2022/08/09 13:02:47;;;;;;;1.00;0.60;;;;;;;;;;5132667;27;20043;-63
2022/08/09 13:05:13;;;;;;;0.63;0.60;;;;;;;;;;5131908;27;20085;-62
2022/08/09 13:07:39;;;;;;;0.55;0.50;;;;;;;;;;5132412;27;20043;-63
2022/08/09 13:10:06;;;;;;;0.47;0.47;;;;;;;;;;5132910;27;20054;-63
2022/08/09 13:12:32;;;;;;;0.85;0.70;;;;;;;;;;5132295;27;20051;-63
2022/08/09 13:15:06;;;;;;;1.25;0.70;;;;;;;;;;5132639;27;20043;-63
2022/08/09 13:17:32;;;;;;;0.80;0.50;;;;;;;;;;5112617;27;20088;-63